sensor_id;sensor_type;location;lat;lon;timestamp;P1;durP1;ratioP1;P2;durP2;ratioP2
32407;SDS011;18869;55.970;37.502;2022-08-19T00:01:41;9.43;;;7.70;;
32407;SDS011;18869;55.970;37.502;2022-08-19T00:04:11;14.60;;;8.37;;
32407;SDS011;18869;55.970;37.502;2022-08-19T00:06:41;10.67;;;7.90;;
32407;SDS011;18869;55.970;37.502;2022-08-19T00:09:12;9.27;;;7.20;;
32407;SDS011;18869;55.970;37.502;2022-08-19T00:11:41;10.70;;;7.17;;
32407;SDS011;18869;55.970;37.502;2022-08-19T00:14:09;13.83;;;7.67;;
32407;SDS011;18869;55.970;37.502;2022-08-19T00:16:39;14.57;;;8.40;;
32407;SDS011;18869;55.970;37.502;2022-08-19T00:19:07;10.20;;;7.50;;
32407;SDS011;18869;55.970;37.502;2022-08-19T00:21:36;11.47;;;8.47;;
32407;SDS011;18869;55.970;37.502;2022-08-19T00:24:06;14.67;;;8.10;;
32407;SDS011;18869;55.970;37.502;2022-08-19T00:26:35;13.33;;;8.50;;
32407;SDS011;18869;55.970;37.502;2022-08-19T00:29:04;10.97;;;7.93;;
32407;SDS011;18869;55.970;37.502;2022-08-19T00:31:34;12.37;;;8.23;;
32407;SDS011;18869;55.970;37.502;2022-08-19T00:34:02;9.53;;;7.23;;
32407;SDS011;18869;55.970;37.502;2022-08-19T00:36:30;13.27;;;8.33;;
32407;SDS011;18869;55.970;37.502;2022-08-19T00:38:59;17.20;;;8.30;;
32407;SDS011;18869;55.970;37.502;2022-08-19T00:41:27;16.30;;;7.93;;
32407;SDS011;18869;55.970;37.502;2022-08-19T00:44:01;12.37;;;8.30;;
32407;SDS011;18869;55.970;37.502;2022-08-19T00:46:31;11.73;;;7.40;;
32407;SDS011;18869;55.970;37.502;2022-08-19T00:49:01;15.10;;;8.10;;
32407;SDS011;18869;55.970;37.502;2022-08-19T00:51:32;11.40;;;7.67;;
32407;SDS011;18869;55.970;37.502;2022-08-19T00:54:01;11.90;;;7.63;;
32407;SDS011;18869;55.970;37.502;2022-08-19T00:56:29;10.97;;;7.60;;
32407;SDS011;18869;55.970;37.502;2022-08-19T00:58:58;13.30;;;7.53;;
32407;SDS011;18869;55.970;37.502;2022-08-19T01:01:28;14.40;;;8.13;;
32407;SDS011;18869;55.970;37.502;2022-08-19T01:03:56;14.80;;;7.93;;
32407;SDS011;18869;55.970;37.502;2022-08-19T01:06:24;10.17;;;6.93;;
32407;SDS011;18869;55.970;37.502;2022-08-19T01:08:53;11.37;;;7.70;;
32407;SDS011;18869;55.970;37.502;2022-08-19T01:11:22;8.47;;;6.50;;
32407;SDS011;18869;55.970;37.502;2022-08-19T01:13:50;14.13;;;7.10;;
32407;SDS011;18869;55.970;37.502;2022-08-19T01:16:22;13.60;;;7.30;;
32407;SDS011;18869;55.970;37.502;2022-08-19T01:18:51;12.30;;;7.27;;
32407;SDS011;18869;55.970;37.502;2022-08-19T01:21:22;11.77;;;7.37;;
32407;SDS011;18869;55.970;37.502;2022-08-19T01:23:54;8.60;;;6.40;;
32407;SDS011;18869;55.970;37.502;2022-08-19T01:26:23;12.43;;;6.50;;
32407;SDS011;18869;55.970;37.502;2022-08-19T01:28:54;12.17;;;6.40;;
32407;SDS011;18869;55.970;37.502;2022-08-19T01:31:25;9.57;;;6.10;;
32407;SDS011;18869;55.970;37.502;2022-08-19T01:33:56;9.40;;;6.10;;
32407;SDS011;18869;55.970;37.502;2022-08-19T01:36:26;10.03;;;6.30;;
32407;SDS011;18869;55.970;37.502;2022-08-19T01:38:58;13.53;;;6.40;;
32407;SDS011;18869;55.970;37.502;2022-08-19T01:41:27;8.70;;;5.47;;
32407;SDS011;18869;55.970;37.502;2022-08-19T01:43:55;12.73;;;6.53;;
32407;SDS011;18869;55.970;37.502;2022-08-19T01:46:23;8.73;;;6.50;;
32407;SDS011;18869;55.970;37.502;2022-08-19T01:48:50;10.20;;;5.90;;
32407;SDS011;18869;55.970;37.502;2022-08-19T01:51:18;18.53;;;6.30;;
32407;SDS011;18869;55.970;37.502;2022-08-19T01:53:46;7.97;;;5.70;;
32407;SDS011;18869;55.970;37.502;2022-08-19T01:56:16;7.80;;;5.43;;
32407;SDS011;18869;55.970;37.502;2022-08-19T01:58:45;9.47;;;5.60;;
32407;SDS011;18869;55.970;37.502;2022-08-19T02:01:17;9.23;;;5.57;;
32407;SDS011;18869;55.970;37.502;2022-08-19T02:03:45;10.23;;;5.80;;
32407;SDS011;18869;55.970;37.502;2022-08-19T02:06:13;6.67;;;5.27;;
32407;SDS011;18869;55.970;37.502;2022-08-19T02:08:42;7.13;;;5.67;;
32407;SDS011;18869;55.970;37.502;2022-08-19T02:11:19;9.10;;;5.80;;
32407;SDS011;18869;55.970;37.502;2022-08-19T02:13:48;8.20;;;5.13;;
32407;SDS011;18869;55.970;37.502;2022-08-19T02:16:17;12.93;;;5.80;;
32407;SDS011;18869;55.970;37.502;2022-08-19T02:18:44;11.47;;;5.50;;
32407;SDS011;18869;55.970;37.502;2022-08-19T02:21:14;7.87;;;4.80;;
32407;SDS011;18869;55.970;37.502;2022-08-19T02:23:43;6.97;;;4.97;;
32407;SDS011;18869;55.970;37.502;2022-08-19T02:26:11;8.07;;;5.23;;
32407;SDS011;18869;55.970;37.502;2022-08-19T02:28:41;7.40;;;4.90;;
32407;SDS011;18869;55.970;37.502;2022-08-19T02:31:10;7.23;;;5.33;;
32407;SDS011;18869;55.970;37.502;2022-08-19T02:33:38;9.37;;;4.90;;
32407;SDS011;18869;55.970;37.502;2022-08-19T02:36:07;7.87;;;5.33;;
32407;SDS011;18869;55.970;37.502;2022-08-19T02:38:36;7.10;;;4.97;;
32407;SDS011;18869;55.970;37.502;2022-08-19T02:41:05;10.27;;;4.97;;
32407;SDS011;18869;55.970;37.502;2022-08-19T02:43:35;7.37;;;4.87;;
32407;SDS011;18869;55.970;37.502;2022-08-19T02:46:12;9.70;;;4.60;;
32407;SDS011;18869;55.970;37.502;2022-08-19T02:48:40;8.17;;;5.07;;
32407;SDS011;18869;55.970;37.502;2022-08-19T02:51:14;6.20;;;4.80;;
32407;SDS011;18869;55.970;37.502;2022-08-19T02:53:44;7.47;;;4.97;;
32407;SDS011;18869;55.970;37.502;2022-08-19T02:56:12;7.33;;;5.03;;
32407;SDS011;18869;55.970;37.502;2022-08-19T02:58:40;18.70;;;4.97;;
32407;SDS011;18869;55.970;37.502;2022-08-19T03:01:09;8.93;;;4.90;;
32407;SDS011;18869;55.970;37.502;2022-08-19T03:03:40;7.83;;;4.47;;
32407;SDS011;18869;55.970;37.502;2022-08-19T03:06:10;5.53;;;4.77;;
32407;SDS011;18869;55.970;37.502;2022-08-19T03:08:39;9.27;;;3.97;;
32407;SDS011;18869;55.970;37.502;2022-08-19T03:11:12;4.83;;;4.13;;
32407;SDS011;18869;55.970;37.502;2022-08-19T03:13:40;4.83;;;4.33;;
32407;SDS011;18869;55.970;37.502;2022-08-19T03:16:09;5.10;;;4.13;;
32407;SDS011;18869;55.970;37.502;2022-08-19T03:18:38;7.83;;;4.67;;
32407;SDS011;18869;55.970;37.502;2022-08-19T03:21:06;6.27;;;4.10;;
32407;SDS011;18869;55.970;37.502;2022-08-19T03:23:34;8.37;;;4.97;;
32407;SDS011;18869;55.970;37.502;2022-08-19T03:26:03;6.13;;;4.50;;
32407;SDS011;18869;55.970;37.502;2022-08-19T03:28:32;6.63;;;4.40;;
32407;SDS011;18869;55.970;37.502;2022-08-19T03:31:01;5.10;;;4.13;;
32407;SDS011;18869;55.970;37.502;2022-08-19T03:33:32;6.53;;;4.10;;
32407;SDS011;18869;55.970;37.502;2022-08-19T03:36:03;8.47;;;4.20;;
32407;SDS011;18869;55.970;37.502;2022-08-19T03:38:33;5.30;;;3.53;;
32407;SDS011;18869;55.970;37.502;2022-08-19T03:41:02;5.67;;;3.90;;
32407;SDS011;18869;55.970;37.502;2022-08-19T03:43:32;7.30;;;4.20;;
32407;SDS011;18869;55.970;37.502;2022-08-19T03:46:02;5.17;;;3.40;;
32407;SDS011;18869;55.970;37.502;2022-08-19T03:48:32;6.77;;;4.10;;
32407;SDS011;18869;55.970;37.502;2022-08-19T03:51:00;3.90;;;3.30;;
32407;SDS011;18869;55.970;37.502;2022-08-19T03:53:28;7.47;;;4.37;;
32407;SDS011;18869;55.970;37.502;2022-08-19T03:55:57;5.33;;;3.60;;
32407;SDS011;18869;55.970;37.502;2022-08-19T03:58:26;3.90;;;3.27;;
32407;SDS011;18869;55.970;37.502;2022-08-19T04:00:55;5.80;;;3.77;;
32407;SDS011;18869;55.970;37.502;2022-08-19T04:03:23;4.30;;;3.10;;
32407;SDS011;18869;55.970;37.502;2022-08-19T04:05:53;3.90;;;3.50;;
32407;SDS011;18869;55.970;37.502;2022-08-19T04:08:21;5.17;;;3.30;;
32407;SDS011;18869;55.970;37.502;2022-08-19T04:10:49;6.83;;;3.40;;
32407;SDS011;18869;55.970;37.502;2022-08-19T04:13:17;16.83;;;4.77;;
32407;SDS011;18869;55.970;37.502;2022-08-19T04:15:45;10.10;;;4.00;;
32407;SDS011;18869;55.970;37.502;2022-08-19T04:18:13;14.17;;;4.57;;
32407;SDS011;18869;55.970;37.502;2022-08-19T04:20:42;10.30;;;3.80;;
32407;SDS011;18869;55.970;37.502;2022-08-19T04:23:13;5.43;;;3.43;;
32407;SDS011;18869;55.970;37.502;2022-08-19T04:25:43;3.77;;;3.10;;
32407;SDS011;18869;55.970;37.502;2022-08-19T04:28:11;5.90;;;3.17;;
32407;SDS011;18869;55.970;37.502;2022-08-19T04:30:40;6.00;;;3.37;;
32407;SDS011;18869;55.970;37.502;2022-08-19T04:33:09;7.33;;;3.70;;
32407;SDS011;18869;55.970;37.502;2022-08-19T04:35:38;6.03;;;3.10;;
32407;SDS011;18869;55.970;37.502;2022-08-19T04:38:07;9.63;;;3.23;;
32407;SDS011;18869;55.970;37.502;2022-08-19T04:40:40;5.47;;;3.30;;
32407;SDS011;18869;55.970;37.502;2022-08-19T04:43:26;6.50;;;3.23;;
32407;SDS011;18869;55.970;37.502;2022-08-19T04:45:54;5.10;;;2.93;;
32407;SDS011;18869;55.970;37.502;2022-08-19T04:48:22;4.27;;;3.70;;
32407;SDS011;18869;55.970;37.502;2022-08-19T04:50:52;4.63;;;2.90;;
32407;SDS011;18869;55.970;37.502;2022-08-19T04:53:23;4.17;;;3.20;;
32407;SDS011;18869;55.970;37.502;2022-08-19T04:55:55;7.50;;;3.13;;
32407;SDS011;18869;55.970;37.502;2022-08-19T04:58:24;5.50;;;3.10;;
32407;SDS011;18869;55.970;37.502;2022-08-19T05:00:53;6.03;;;3.50;;
32407;SDS011;18869;55.970;37.502;2022-08-19T05:03:21;4.93;;;3.00;;
32407;SDS011;18869;55.970;37.502;2022-08-19T05:05:49;5.23;;;3.43;;
32407;SDS011;18869;55.970;37.502;2022-08-19T05:08:18;7.87;;;3.70;;
32407;SDS011;18869;55.970;37.502;2022-08-19T05:10:48;6.20;;;3.77;;
32407;SDS011;18869;55.970;37.502;2022-08-19T05:13:19;8.87;;;3.20;;
32407;SDS011;18869;55.970;37.502;2022-08-19T05:15:53;6.13;;;3.00;;
32407;SDS011;18869;55.970;37.502;2022-08-19T05:18:21;5.77;;;3.10;;
32407;SDS011;18869;55.970;37.502;2022-08-19T05:21:07;5.23;;;2.90;;
32407;SDS011;18869;55.970;37.502;2022-08-19T05:23:53;4.03;;;3.03;;
32407;SDS011;18869;55.970;37.502;2022-08-19T05:26:20;5.40;;;3.40;;
32407;SDS011;18869;55.970;37.502;2022-08-19T05:28:50;6.20;;;3.20;;
32407;SDS011;18869;55.970;37.502;2022-08-19T05:31:18;5.90;;;2.60;;
32407;SDS011;18869;55.970;37.502;2022-08-19T05:33:46;6.33;;;2.87;;
32407;SDS011;18869;55.970;37.502;2022-08-19T05:36:16;3.47;;;3.07;;
32407;SDS011;18869;55.970;37.502;2022-08-19T05:38:47;5.60;;;3.23;;
32407;SDS011;18869;55.970;37.502;2022-08-19T05:41:15;3.27;;;2.80;;
32407;SDS011;18869;55.970;37.502;2022-08-19T05:43:46;6.57;;;3.27;;
32407;SDS011;18869;55.970;37.502;2022-08-19T05:46:17;4.03;;;2.50;;
32407;SDS011;18869;55.970;37.502;2022-08-19T05:48:46;6.68;;;3.08;;
32407;SDS011;18869;55.970;37.502;2022-08-19T05:51:14;4.87;;;2.80;;
32407;SDS011;18869;55.970;37.502;2022-08-19T05:53:42;5.40;;;2.90;;
32407;SDS011;18869;55.970;37.502;2022-08-19T05:56:12;7.50;;;2.90;;
32407;SDS011;18869;55.970;37.502;2022-08-19T05:58:42;4.45;;;2.92;;
32407;SDS011;18869;55.970;37.502;2022-08-19T06:01:12;5.82;;;3.05;;
32407;SDS011;18869;55.970;37.502;2022-08-19T06:03:43;3.70;;;2.25;;
32407;SDS011;18869;55.970;37.502;2022-08-19T06:06:11;5.00;;;2.47;;
32407;SDS011;18869;55.970;37.502;2022-08-19T06:08:41;3.53;;;2.60;;
32407;SDS011;18869;55.970;37.502;2022-08-19T06:11:12;3.95;;;2.37;;
32407;SDS011;18869;55.970;37.502;2022-08-19T06:13:42;5.03;;;2.97;;
32407;SDS011;18869;55.970;37.502;2022-08-19T06:16:13;6.22;;;2.62;;
32407;SDS011;18869;55.970;37.502;2022-08-19T06:18:46;2.87;;;2.67;;
32407;SDS011;18869;55.970;37.502;2022-08-19T06:21:14;8.35;;;2.92;;
32407;SDS011;18869;55.970;37.502;2022-08-19T06:23:42;2.97;;;2.60;;
32407;SDS011;18869;55.970;37.502;2022-08-19T06:26:11;5.10;;;2.80;;
32407;SDS011;18869;55.970;37.502;2022-08-19T06:28:39;5.30;;;2.80;;
32407;SDS011;18869;55.970;37.502;2022-08-19T06:31:08;9.65;;;3.78;;
32407;SDS011;18869;55.970;37.502;2022-08-19T06:33:37;7.72;;;2.90;;
32407;SDS011;18869;55.970;37.502;2022-08-19T06:36:07;4.55;;;3.00;;
32407;SDS011;18869;55.970;37.502;2022-08-19T06:38:35;5.20;;;3.05;;
32407;SDS011;18869;55.970;37.502;2022-08-19T06:41:03;4.12;;;3.33;;
32407;SDS011;18869;55.970;37.502;2022-08-19T06:43:32;3.45;;;2.95;;
32407;SDS011;18869;55.970;37.502;2022-08-19T06:45:59;4.33;;;2.80;;
32407;SDS011;18869;55.970;37.502;2022-08-19T06:48:29;4.77;;;2.70;;
32407;SDS011;18869;55.970;37.502;2022-08-19T06:50:58;4.97;;;3.47;;
32407;SDS011;18869;55.970;37.502;2022-08-19T06:53:28;4.63;;;3.00;;
32407;SDS011;18869;55.970;37.502;2022-08-19T06:55:56;3.87;;;2.50;;
32407;SDS011;18869;55.970;37.502;2022-08-19T06:58:28;2.90;;;2.63;;
32407;SDS011;18869;55.970;37.502;2022-08-19T07:00:58;5.30;;;3.00;;
32407;SDS011;18869;55.970;37.502;2022-08-19T07:03:28;4.43;;;3.30;;
32407;SDS011;18869;55.970;37.502;2022-08-19T07:05:57;4.70;;;3.07;;
32407;SDS011;18869;55.970;37.502;2022-08-19T07:08:27;6.57;;;3.17;;
32407;SDS011;18869;55.970;37.502;2022-08-19T07:10:55;3.10;;;2.80;;
32407;SDS011;18869;55.970;37.502;2022-08-19T07:13:23;5.37;;;3.17;;
32407;SDS011;18869;55.970;37.502;2022-08-19T07:15:51;6.77;;;2.90;;
32407;SDS011;18869;55.970;37.502;2022-08-19T07:18:18;5.93;;;3.03;;
32407;SDS011;18869;55.970;37.502;2022-08-19T07:20:47;4.87;;;3.05;;
32407;SDS011;18869;55.970;37.502;2022-08-19T07:23:15;4.05;;;2.75;;
32407;SDS011;18869;55.970;37.502;2022-08-19T07:25:44;4.87;;;2.90;;
32407;SDS011;18869;55.970;37.502;2022-08-19T07:28:11;3.77;;;2.90;;
32407;SDS011;18869;55.970;37.502;2022-08-19T07:30:42;7.17;;;3.03;;
32407;SDS011;18869;55.970;37.502;2022-08-19T07:33:09;3.57;;;2.67;;
32407;SDS011;18869;55.970;37.502;2022-08-19T07:35:37;5.47;;;3.00;;
32407;SDS011;18869;55.970;37.502;2022-08-19T07:38:05;4.67;;;3.17;;
32407;SDS011;18869;55.970;37.502;2022-08-19T07:40:33;5.20;;;3.03;;
32407;SDS011;18869;55.970;37.502;2022-08-19T07:43:02;4.13;;;3.40;;
32407;SDS011;18869;55.970;37.502;2022-08-19T07:45:30;7.13;;;3.57;;
32407;SDS011;18869;55.970;37.502;2022-08-19T07:47:58;5.33;;;3.03;;
32407;SDS011;18869;55.970;37.502;2022-08-19T07:50:26;5.87;;;3.30;;
32407;SDS011;18869;55.970;37.502;2022-08-19T07:52:54;2.60;;;2.40;;
32407;SDS011;18869;55.970;37.502;2022-08-19T07:55:23;4.70;;;2.73;;
32407;SDS011;18869;55.970;37.502;2022-08-19T07:57:52;3.60;;;2.77;;
32407;SDS011;18869;55.970;37.502;2022-08-19T08:00:22;6.30;;;2.70;;
32407;SDS011;18869;55.970;37.502;2022-08-19T08:02:51;13.03;;;3.97;;
32407;SDS011;18869;55.970;37.502;2022-08-19T08:05:18;7.43;;;2.87;;
32407;SDS011;18869;55.970;37.502;2022-08-19T08:08:03;4.10;;;2.30;;
32407;SDS011;18869;55.970;37.502;2022-08-19T08:11:03;4.93;;;2.77;;
32407;SDS011;18869;55.970;37.502;2022-08-19T08:13:32;3.33;;;2.60;;
32407;SDS011;18869;55.970;37.502;2022-08-19T08:16:02;3.73;;;2.60;;
32407;SDS011;18869;55.970;37.502;2022-08-19T08:18:33;2.70;;;2.50;;
32407;SDS011;18869;55.970;37.502;2022-08-19T08:21:07;5.93;;;2.80;;
32407;SDS011;18869;55.970;37.502;2022-08-19T08:23:35;4.30;;;2.60;;
32407;SDS011;18869;55.970;37.502;2022-08-19T08:26:03;5.07;;;2.73;;
32407;SDS011;18869;55.970;37.502;2022-08-19T08:28:31;6.20;;;2.57;;
32407;SDS011;18869;55.970;37.502;2022-08-19T08:30:59;3.63;;;2.43;;
32407;SDS011;18869;55.970;37.502;2022-08-19T08:33:28;3.83;;;2.10;;
32407;SDS011;18869;55.970;37.502;2022-08-19T08:35:56;4.53;;;1.83;;
32407;SDS011;18869;55.970;37.502;2022-08-19T08:38:24;4.37;;;2.10;;
32407;SDS011;18869;55.970;37.502;2022-08-19T08:40:53;6.43;;;2.33;;
32407;SDS011;18869;55.970;37.502;2022-08-19T08:43:29;3.78;;;2.03;;
32407;SDS011;18869;55.970;37.502;2022-08-19T08:46:01;8.30;;;2.35;;
32407;SDS011;18869;55.970;37.502;2022-08-19T08:48:35;5.57;;;2.78;;
32407;SDS011;18869;55.970;37.502;2022-08-19T08:51:06;3.30;;;2.12;;
32407;SDS011;18869;55.970;37.502;2022-08-19T08:53:37;5.47;;;2.40;;
32407;SDS011;18869;55.970;37.502;2022-08-19T08:56:06;3.10;;;2.08;;
32407;SDS011;18869;55.970;37.502;2022-08-19T08:58:41;3.70;;;2.12;;
32407;SDS011;18869;55.970;37.502;2022-08-19T09:01:13;4.35;;;2.78;;
32407;SDS011;18869;55.970;37.502;2022-08-19T09:03:43;8.10;;;2.50;;
32407;SDS011;18869;55.970;37.502;2022-08-19T09:06:12;3.00;;;2.60;;
32407;SDS011;18869;55.970;37.502;2022-08-19T09:08:45;4.65;;;2.53;;
32407;SDS011;18869;55.970;37.502;2022-08-19T09:11:18;2.87;;;2.58;;
32407;SDS011;18869;55.970;37.502;2022-08-19T09:13:53;4.72;;;2.47;;
32407;SDS011;18869;55.970;37.502;2022-08-19T09:16:26;2.35;;;2.15;;
32407;SDS011;18869;55.970;37.502;2022-08-19T09:18:57;3.62;;;2.00;;
32407;SDS011;18869;55.970;37.502;2022-08-19T09:21:27;5.12;;;1.92;;
32407;SDS011;18869;55.970;37.502;2022-08-19T09:23:56;4.75;;;2.05;;
32407;SDS011;18869;55.970;37.502;2022-08-19T09:26:24;2.30;;;2.08;;
32407;SDS011;18869;55.970;37.502;2022-08-19T09:28:52;2.47;;;2.05;;
32407;SDS011;18869;55.970;37.502;2022-08-19T09:31:26;4.43;;;1.92;;
32407;SDS011;18869;55.970;37.502;2022-08-19T09:33:56;11.20;;;2.80;;
32407;SDS011;18869;55.970;37.502;2022-08-19T09:36:27;4.78;;;3.08;;
32407;SDS011;18869;55.970;37.502;2022-08-19T09:39:00;4.47;;;2.67;;
32407;SDS011;18869;55.970;37.502;2022-08-19T09:41:29;3.53;;;2.78;;
32407;SDS011;18869;55.970;37.502;2022-08-19T09:43:57;3.75;;;2.65;;
32407;SDS011;18869;55.970;37.502;2022-08-19T09:46:26;4.87;;;2.90;;
32407;SDS011;18869;55.970;37.502;2022-08-19T09:48:56;4.45;;;2.60;;
32407;SDS011;18869;55.970;37.502;2022-08-19T09:51:26;3.83;;;2.45;;
32407;SDS011;18869;55.970;37.502;2022-08-19T09:53:58;2.90;;;2.47;;
32407;SDS011;18869;55.970;37.502;2022-08-19T09:56:27;4.32;;;2.90;;
32407;SDS011;18869;55.970;37.502;2022-08-19T09:58:54;4.45;;;2.80;;
32407;SDS011;18869;55.970;37.502;2022-08-19T10:01:23;3.10;;;2.80;;
32407;SDS011;18869;55.970;37.502;2022-08-19T10:03:53;5.32;;;3.33;;
32407;SDS011;18869;55.970;37.502;2022-08-19T10:06:24;4.20;;;2.85;;
32407;SDS011;18869;55.970;37.502;2022-08-19T10:08:55;3.80;;;2.85;;
32407;SDS011;18869;55.970;37.502;2022-08-19T10:11:22;4.80;;;2.42;;
32407;SDS011;18869;55.970;37.502;2022-08-19T10:13:50;4.35;;;2.65;;
32407;SDS011;18869;55.970;37.502;2022-08-19T10:16:20;13.68;;;3.28;;
32407;SDS011;18869;55.970;37.502;2022-08-19T10:18:50;4.32;;;2.45;;
32407;SDS011;18869;55.970;37.502;2022-08-19T10:21:19;4.55;;;2.85;;
32407;SDS011;18869;55.970;37.502;2022-08-19T10:23:51;2.67;;;2.45;;
32407;SDS011;18869;55.970;37.502;2022-08-19T10:26:21;6.82;;;2.80;;
32407;SDS011;18869;55.970;37.502;2022-08-19T10:28:50;5.00;;;2.90;;
32407;SDS011;18869;55.970;37.502;2022-08-19T10:31:20;4.12;;;2.75;;
32407;SDS011;18869;55.970;37.502;2022-08-19T10:33:49;7.03;;;2.78;;
32407;SDS011;18869;55.970;37.502;2022-08-19T10:36:23;6.37;;;3.05;;
32407;SDS011;18869;55.970;37.502;2022-08-19T10:38:54;2.85;;;2.65;;
32407;SDS011;18869;55.970;37.502;2022-08-19T10:41:25;2.95;;;2.47;;
32407;SDS011;18869;55.970;37.502;2022-08-19T10:43:55;5.10;;;2.28;;
32407;SDS011;18869;55.970;37.502;2022-08-19T10:46:24;3.55;;;2.60;;
32407;SDS011;18869;55.970;37.502;2022-08-19T10:48:53;6.72;;;2.85;;
32407;SDS011;18869;55.970;37.502;2022-08-19T10:51:22;5.18;;;2.55;;
32407;SDS011;18869;55.970;37.502;2022-08-19T10:54:08;4.78;;;2.30;;
32407;SDS011;18869;55.970;37.502;2022-08-19T10:56:36;6.10;;;2.92;;
32407;SDS011;18869;55.970;37.502;2022-08-19T10:59:18;2.90;;;2.10;;
32407;SDS011;18869;55.970;37.502;2022-08-19T11:01:48;5.47;;;2.50;;
32407;SDS011;18869;55.970;37.502;2022-08-19T11:04:16;5.28;;;2.58;;
32407;SDS011;18869;55.970;37.502;2022-08-19T11:06:44;5.93;;;2.70;;
32407;SDS011;18869;55.970;37.502;2022-08-19T11:09:15;9.40;;;2.83;;
32407;SDS011;18869;55.970;37.502;2022-08-19T11:11:44;2.92;;;2.35;;
32407;SDS011;18869;55.970;37.502;2022-08-19T11:14:14;5.72;;;3.12;;
32407;SDS011;18869;55.970;37.502;2022-08-19T11:16:46;6.07;;;2.55;;
32407;SDS011;18869;55.970;37.502;2022-08-19T11:19:14;4.15;;;3.12;;
32407;SDS011;18869;55.970;37.502;2022-08-19T11:21:46;7.30;;;2.78;;
32407;SDS011;18869;55.970;37.502;2022-08-19T11:24:17;4.90;;;2.55;;
32407;SDS011;18869;55.970;37.502;2022-08-19T11:26:47;4.40;;;2.40;;
32407;SDS011;18869;55.970;37.502;2022-08-19T11:29:17;5.62;;;3.00;;
32407;SDS011;18869;55.970;37.502;2022-08-19T11:31:47;4.10;;;2.70;;
32407;SDS011;18869;55.970;37.502;2022-08-19T11:34:15;4.77;;;2.60;;
32407;SDS011;18869;55.970;37.502;2022-08-19T11:36:46;5.00;;;3.40;;
32407;SDS011;18869;55.970;37.502;2022-08-19T11:39:15;5.17;;;2.50;;
32407;SDS011;18869;55.970;37.502;2022-08-19T11:41:45;6.27;;;2.87;;
32407;SDS011;18869;55.970;37.502;2022-08-19T11:44:13;6.80;;;3.50;;
32407;SDS011;18869;55.970;37.502;2022-08-19T11:46:42;4.37;;;2.70;;
32407;SDS011;18869;55.970;37.502;2022-08-19T11:49:11;4.63;;;2.47;;
32407;SDS011;18869;55.970;37.502;2022-08-19T11:51:39;3.80;;;2.60;;
32407;SDS011;18869;55.970;37.502;2022-08-19T11:54:09;5.97;;;3.03;;
32407;SDS011;18869;55.970;37.502;2022-08-19T11:56:39;4.93;;;3.10;;
32407;SDS011;18869;55.970;37.502;2022-08-19T11:59:08;4.13;;;2.63;;
32407;SDS011;18869;55.970;37.502;2022-08-19T12:01:36;5.13;;;2.17;;
32407;SDS011;18869;55.970;37.502;2022-08-19T12:04:10;5.40;;;2.83;;
32407;SDS011;18869;55.970;37.502;2022-08-19T12:06:39;4.17;;;2.20;;
32407;SDS011;18869;55.970;37.502;2022-08-19T12:09:08;3.40;;;2.00;;
32407;SDS011;18869;55.970;37.502;2022-08-19T12:11:37;6.70;;;2.30;;
32407;SDS011;18869;55.970;37.502;2022-08-19T12:14:08;3.47;;;2.22;;
32407;SDS011;18869;55.970;37.502;2022-08-19T12:16:37;8.20;;;2.97;;
32407;SDS011;18869;55.970;37.502;2022-08-19T12:19:09;3.33;;;2.43;;
32407;SDS011;18869;55.970;37.502;2022-08-19T12:21:40;4.87;;;2.33;;
32407;SDS011;18869;55.970;37.502;2022-08-19T12:24:11;3.87;;;2.40;;
32407;SDS011;18869;55.970;37.502;2022-08-19T12:26:40;3.67;;;2.37;;
32407;SDS011;18869;55.970;37.502;2022-08-19T12:29:10;4.07;;;2.60;;
32407;SDS011;18869;55.970;37.502;2022-08-19T12:31:41;4.07;;;2.67;;
32407;SDS011;18869;55.970;37.502;2022-08-19T12:34:11;4.33;;;2.77;;
32407;SDS011;18869;55.970;37.502;2022-08-19T12:36:38;5.93;;;2.30;;
32407;SDS011;18869;55.970;37.502;2022-08-19T12:39:07;4.27;;;2.20;;
32407;SDS011;18869;55.970;37.502;2022-08-19T12:41:35;3.53;;;2.57;;
32407;SDS011;18869;55.970;37.502;2022-08-19T12:44:03;7.30;;;2.90;;
32407;SDS011;18869;55.970;37.502;2022-08-19T12:46:33;6.93;;;3.00;;
32407;SDS011;18869;55.970;37.502;2022-08-19T12:49:01;4.77;;;2.47;;
32407;SDS011;18869;55.970;37.502;2022-08-19T12:51:29;4.63;;;2.70;;
32407;SDS011;18869;55.970;37.502;2022-08-19T12:53:57;6.60;;;2.40;;
32407;SDS011;18869;55.970;37.502;2022-08-19T12:56:26;7.33;;;2.90;;
32407;SDS011;18869;55.970;37.502;2022-08-19T12:58:54;6.83;;;3.40;;
32407;SDS011;18869;55.970;37.502;2022-08-19T13:01:23;4.50;;;3.07;;
32407;SDS011;18869;55.970;37.502;2022-08-19T13:03:52;5.23;;;3.10;;
32407;SDS011;18869;55.970;37.502;2022-08-19T13:06:20;2.60;;;2.23;;
32407;SDS011;18869;55.970;37.502;2022-08-19T13:08:48;4.10;;;2.73;;
32407;SDS011;18869;55.970;37.502;2022-08-19T13:11:17;5.77;;;3.00;;
32407;SDS011;18869;55.970;37.502;2022-08-19T13:13:46;6.70;;;3.30;;
32407;SDS011;18869;55.970;37.502;2022-08-19T13:16:18;3.93;;;2.70;;
32407;SDS011;18869;55.970;37.502;2022-08-19T13:18:47;6.60;;;3.17;;
32407;SDS011;18869;55.970;37.502;2022-08-19T13:21:20;6.10;;;3.40;;
32407;SDS011;18869;55.970;37.502;2022-08-19T13:23:48;6.90;;;3.00;;
32407;SDS011;18869;55.970;37.502;2022-08-19T13:26:16;7.23;;;3.40;;
32407;SDS011;18869;55.970;37.502;2022-08-19T13:28:44;5.37;;;3.13;;
32407;SDS011;18869;55.970;37.502;2022-08-19T13:31:31;6.97;;;2.83;;
32407;SDS011;18869;55.970;37.502;2022-08-19T13:34:24;3.70;;;2.50;;
32407;SDS011;18869;55.970;37.502;2022-08-19T13:36:56;5.47;;;2.53;;
32407;SDS011;18869;55.970;37.502;2022-08-19T13:39:27;4.73;;;3.03;;
32407;SDS011;18869;55.970;37.502;2022-08-19T13:41:56;9.17;;;3.80;;
32407;SDS011;18869;55.970;37.502;2022-08-19T13:44:28;5.47;;;3.17;;
32407;SDS011;18869;55.970;37.502;2022-08-19T13:46:59;6.07;;;3.20;;
32407;SDS011;18869;55.970;37.502;2022-08-19T13:49:31;7.87;;;3.40;;
32407;SDS011;18869;55.970;37.502;2022-08-19T13:52:02;8.23;;;3.40;;
32407;SDS011;18869;55.970;37.502;2022-08-19T13:54:32;6.17;;;3.23;;
32407;SDS011;18869;55.970;37.502;2022-08-19T13:57:03;3.83;;;2.87;;
32407;SDS011;18869;55.970;37.502;2022-08-19T13:59:32;4.60;;;3.07;;
32407;SDS011;18869;55.970;37.502;2022-08-19T14:02:00;8.53;;;3.20;;
32407;SDS011;18869;55.970;37.502;2022-08-19T14:04:28;4.30;;;3.10;;
32407;SDS011;18869;55.970;37.502;2022-08-19T14:06:58;4.27;;;2.97;;
32407;SDS011;18869;55.970;37.502;2022-08-19T14:09:28;7.23;;;3.10;;
32407;SDS011;18869;55.970;37.502;2022-08-19T14:11:56;4.93;;;3.20;;
32407;SDS011;18869;55.970;37.502;2022-08-19T14:14:24;6.83;;;2.97;;
32407;SDS011;18869;55.970;37.502;2022-08-19T14:16:52;8.73;;;2.70;;
32407;SDS011;18869;55.970;37.502;2022-08-19T14:19:20;7.37;;;3.50;;
32407;SDS011;18869;55.970;37.502;2022-08-19T14:21:49;9.13;;;3.37;;
32407;SDS011;18869;55.970;37.502;2022-08-19T14:24:17;6.53;;;3.47;;
32407;SDS011;18869;55.970;37.502;2022-08-19T14:26:47;5.53;;;3.17;;
32407;SDS011;18869;55.970;37.502;2022-08-19T14:29:14;7.50;;;3.17;;
32407;SDS011;18869;55.970;37.502;2022-08-19T14:31:42;6.13;;;2.80;;
32407;SDS011;18869;55.970;37.502;2022-08-19T14:34:10;5.03;;;2.90;;
32407;SDS011;18869;55.970;37.502;2022-08-19T14:36:40;3.23;;;2.60;;
32407;SDS011;18869;55.970;37.502;2022-08-19T14:39:08;4.47;;;2.90;;
32407;SDS011;18869;55.970;37.502;2022-08-19T14:41:36;3.47;;;2.77;;
32407;SDS011;18869;55.970;37.502;2022-08-19T14:44:08;5.33;;;3.13;;
32407;SDS011;18869;55.970;37.502;2022-08-19T14:46:39;4.97;;;3.20;;
32407;SDS011;18869;55.970;37.502;2022-08-19T14:49:07;5.07;;;2.77;;